sensor_id;sensor_type;location;lat;lon;timestamp;pressure;altitude;pressure_sealevel;temperature;humidity
65760;BME280;52496;51.082;5.066;2023-04-28T00:02:05;101142.44;;;10.66;79.37
65760;BME280;52496;51.082;5.066;2023-04-28T00:04:35;101143.78;;;10.62;79.80
65760;BME280;52496;51.082;5.066;2023-04-28T00:07:06;101135.13;;;10.60;80.95
65760;BME280;52496;51.082;5.066;2023-04-28T00:09:39;101131.47;;;10.52;81.74
65760;BME280;52496;51.082;5.066;2023-04-28T00:12:09;101138.50;;;10.53;84.71
65760;BME280;52496;51.082;5.066;2023-04-28T00:14:40;101135.19;;;10.51;81.90
65760;BME280;52496;51.082;5.066;2023-04-28T00:17:11;101138.03;;;10.50;83.40
65760;BME280;52496;51.082;5.066;2023-04-28T00:19:41;101130.03;;;10.50;86.10
65760;BME280;52496;51.082;5.066;2023-04-28T00:22:11;101125.84;;;10.47;85.13
65760;BME280;52496;51.082;5.066;2023-04-28T00:24:42;101109.16;;;10.45;89.30
65760;BME280;52496;51.082;5.066;2023-04-28T00:27:12;101104.97;;;10.43;87.34
65760;BME280;52496;51.082;5.066;2023-04-28T00:29:43;101090.13;;;10.40;89.86
65760;BME280;52496;51.082;5.066;2023-04-28T00:32:13;101078.59;;;10.40;91.09
65760;BME280;52496;51.082;5.066;2023-04-28T00:34:44;101073.13;;;10.33;90.32
65760;BME280;52496;51.082;5.066;2023-04-28T00:37:14;101071.84;;;10.29;89.87
65760;BME280;52496;51.082;5.066;2023-04-28T00:39:45;101064.28;;;10.24;89.34
65760;BME280;52496;51.082;5.066;2023-04-28T00:42:18;101059.31;;;10.21;92.51
65760;BME280;52496;51.082;5.066;2023-04-28T00:44:48;101060.13;;;10.22;93.87
65760;BME280;52496;51.082;5.066;2023-04-28T00:47:19;101059.50;;;10.20;91.43
65760;BME280;52496;51.082;5.066;2023-04-28T00:49:49;101057.19;;;10.17;91.71
65760;BME280;52496;51.082;5.066;2023-04-28T00:52:20;101043.97;;;10.15;90.37
65760;BME280;52496;51.082;5.066;2023-04-28T00:54:51;101038.63;;;10.15;91.49
65760;BME280;52496;51.082;5.066;2023-04-28T00:57:21;101029.13;;;10.13;91.80
65760;BME280;52496;51.082;5.066;2023-04-28T00:59:52;101026.44;;;10.13;90.82
65760;BME280;52496;51.082;5.066;2023-04-28T01:02:23;101042.13;;;10.16;90.31
65760;BME280;52496;51.082;5.066;2023-04-28T01:04:55;101053.84;;;10.15;89.83
65760;BME280;52496;51.082;5.066;2023-04-28T01:07:25;101063.69;;;10.14;89.94
65760;BME280;52496;51.082;5.066;2023-04-28T01:09:56;101075.38;;;10.13;89.43
65760;BME280;52496;51.082;5.066;2023-04-28T01:12:26;101086.25;;;10.11;89.80
65760;BME280;52496;51.082;5.066;2023-04-28T01:14:57;101092.63;;;10.10;89.75
65760;BME280;52496;51.082;5.066;2023-04-28T01:17:27;101088.25;;;10.09;89.32
65760;BME280;52496;51.082;5.066;2023-04-28T01:19:58;101075.56;;;10.11;90.49
65760;BME280;52496;51.082;5.066;2023-04-28T01:22:28;101067.72;;;10.10;90.20
65760;BME280;52496;51.082;5.066;2023-04-28T01:24:59;101073.06;;;10.10;91.12
65760;BME280;52496;51.082;5.066;2023-04-28T01:27:30;101061.53;;;10.09;90.67
65760;BME280;52496;51.082;5.066;2023-04-28T01:30:00;101065.22;;;10.08;90.72
65760;BME280;52496;51.082;5.066;2023-04-28T01:32:30;101058.25;;;10.07;91.25
65760;BME280;52496;51.082;5.066;2023-04-28T01:35:01;101054.53;;;10.08;91.23
65760;BME280;52496;51.082;5.066;2023-04-28T01:37:31;101045.50;;;10.09;91.73
65760;BME280;52496;51.082;5.066;2023-04-28T01:40:02;101041.34;;;10.07;91.92
65760;BME280;52496;51.082;5.066;2023-04-28T01:42:33;101034.34;;;10.06;92.29
65760;BME280;52496;51.082;5.066;2023-04-28T01:45:03;101031.88;;;10.04;93.46
65760;BME280;52496;51.082;5.066;2023-04-28T01:47:34;101022.84;;;10.05;93.16
65760;BME280;52496;51.082;5.066;2023-04-28T01:50:05;101033.53;;;10.05;93.26
65760;BME280;52496;51.082;5.066;2023-04-28T01:52:36;101026.53;;;10.04;93.65
65760;BME280;52496;51.082;5.066;2023-04-28T01:55:06;101032.34;;;10.08;94.57
65760;BME280;52496;51.082;5.066;2023-04-28T01:57:37;101048.19;;;10.09;95.11
65760;BME280;52496;51.082;5.066;2023-04-28T02:00:08;101049.69;;;10.12;98.19
65760;BME280;52496;51.082;5.066;2023-04-28T02:02:38;101037.34;;;10.11;100.00
65760;BME280;52496;51.082;5.066;2023-04-28T02:05:09;101043.50;;;10.11;100.00
65760;BME280;52496;51.082;5.066;2023-04-28T02:07:40;101032.81;;;10.11;100.00
65760;BME280;52496;51.082;5.066;2023-04-28T02:10:11;101038.16;;;10.11;100.00
65760;BME280;52496;51.082;5.066;2023-04-28T02:12:41;101036.31;;;10.12;100.00
65760;BME280;52496;51.082;5.066;2023-04-28T02:15:12;101025.16;;;10.08;99.47
65760;BME280;52496;51.082;5.066;2023-04-28T02:17:43;101031.50;;;10.07;99.51
65760;BME280;52496;51.082;5.066;2023-04-28T02:20:13;101013.78;;;10.06;99.86
65760;BME280;52496;51.082;5.066;2023-04-28T02:22:44;101002.13;;;10.07;100.00
65760;BME280;52496;51.082;5.066;2023-04-28T02:25:14;101000.09;;;10.09;100.00
65760;BME280;52496;51.082;5.066;2023-04-28T02:27:45;100971.72;;;10.08;100.00
65760;BME280;52496;51.082;5.066;2023-04-28T02:30:15;100954.66;;;10.09;100.00
65760;BME280;52496;51.082;5.066;2023-04-28T02:32:47;100930.97;;;10.06;100.00
65760;BME280;52496;51.082;5.066;2023-04-28T02:35:17;100889.59;;;10.02;100.00
65760;BME280;52496;51.082;5.066;2023-04-28T02:37:48;100853.38;;;10.00;100.00
65760;BME280;52496;51.082;5.066;2023-04-28T02:40:18;100836.88;;;9.96;100.00
65760;BME280;52496;51.082;5.066;2023-04-28T02:42:49;100852.44;;;9.93;100.00
65760;BME280;52496;51.082;5.066;2023-04-28T02:45:19;100904.38;;;9.90;100.00
65760;BME280;52496;51.082;5.066;2023-04-28T02:47:50;100926.78;;;9.89;100.00
65760;BME280;52496;51.082;5.066;2023-04-28T02:50:21;100944.63;;;9.88;100.00
65760;BME280;52496;51.082;5.066;2023-04-28T02:52:51;100961.84;;;9.86;100.00
65760;BME280;52496;51.082;5.066;2023-04-28T02:55:22;100974.19;;;9.87;100.00
65760;BME280;52496;51.082;5.066;2023-04-28T02:57:53;100974.00;;;9.88;100.00
65760;BME280;52496;51.082;5.066;2023-04-28T03:00:24;100969.16;;;9.92;100.00
65760;BME280;52496;51.082;5.066;2023-04-28T03:02:54;100963.47;;;9.95;100.00
65760;BME280;52496;51.082;5.066;2023-04-28T03:05:25;100963.75;;;10.00;100.00
65760;BME280;52496;51.082;5.066;2023-04-28T03:07:56;100961.72;;;10.02;100.00
65760;BME280;52496;51.082;5.066;2023-04-28T03:10:26;100954.03;;;10.07;100.00
65760;BME280;52496;51.082;5.066;2023-04-28T03:12:57;100947.66;;;10.08;100.00
65760;BME280;52496;51.082;5.066;2023-04-28T03:15:28;100930.25;;;10.13;100.00
65760;BME280;52496;51.082;5.066;2023-04-28T03:17:58;100931.75;;;10.15;100.00
65760;BME280;52496;51.082;5.066;2023-04-28T03:20:29;100930.91;;;10.15;100.00
65760;BME280;52496;51.082;5.066;2023-04-28T03:22:59;100933.59;;;10.15;100.00
65760;BME280;52496;51.082;5.066;2023-04-28T03:25:31;100925.56;;;10.15;100.00
65760;BME280;52496;51.082;5.066;2023-04-28T03:28:02;100919.19;;;10.16;100.00
65760;BME280;52496;51.082;5.066;2023-04-28T03:30:32;100913.50;;;10.19;100.00
65760;BME280;52496;51.082;5.066;2023-04-28T03:33:03;100911.47;;;10.21;100.00
65760;BME280;52496;51.082;5.066;2023-04-28T03:35:33;100904.13;;;10.23;100.00
65760;BME280;52496;51.082;5.066;2023-04-28T03:38:04;100907.63;;;10.23;100.00
65760;BME280;52496;51.082;5.066;2023-04-28T03:40:35;100910.09;;;10.25;100.00
65760;BME280;52496;51.082;5.066;2023-04-28T03:45:47;100892.09;;;10.27;100.00
65760;BME280;52496;51.082;5.066;2023-04-28T03:48:18;100888.41;;;10.28;100.00
65760;BME280;52496;51.082;5.066;2023-04-28T03:50:49;100891.72;;;10.30;100.00
65760;BME280;52496;51.082;5.066;2023-04-28T03:53:21;100886.38;;;10.30;100.00
65760;BME280;52496;51.082;5.066;2023-04-28T03:55:51;100897.53;;;10.33;100.00
65760;BME280;52496;51.082;5.066;2023-04-28T03:58:22;100898.34;;;10.34;100.00
65760;BME280;52496;51.082;5.066;2023-04-28T04:00:52;100903.69;;;10.34;100.00
65760;BME280;52496;51.082;5.066;2023-04-28T04:03:23;100900.66;;;10.37;100.00
65760;BME280;52496;51.082;5.066;2023-04-28T04:05:55;100893.31;;;10.39;100.00
65760;BME280;52496;51.082;5.066;2023-04-28T04:08:26;100891.47;;;10.40;100.00
65760;BME280;52496;51.082;5.066;2023-04-28T04:10:57;100897.63;;;10.40;100.00
65760;BME280;52496;51.082;5.066;2023-04-28T04:13:27;100900.59;;;10.45;100.00
65760;BME280;52496;51.082;5.066;2023-04-28T04:15:58;100903.09;;;10.47;100.00
65760;BME280;52496;51.082;5.066;2023-04-28T04:18:28;100893.25;;;10.47;100.00
65760;BME280;52496;51.082;5.066;2023-04-28T04:20:59;100894.88;;;10.48;100.00
65760;BME280;52496;51.082;5.066;2023-04-28T04:23:29;100891.19;;;10.49;100.00
65760;BME280;52496;51.082;5.066;2023-04-28T04:26:00;100892.88;;;10.50;100.00
65760;BME280;52496;51.082;5.066;2023-04-28T04:28:31;100882.81;;;10.52;100.00
65760;BME280;52496;51.082;5.066;2023-04-28T04:31:01;100882.44;;;10.55;100.00
65760;BME280;52496;51.082;5.066;2023-04-28T04:33:32;100878.56;;;10.58;100.00
65760;BME280;52496;51.082;5.066;2023-04-28T04:36:04;100873.69;;;10.62;100.00
65760;BME280;52496;51.082;5.066;2023-04-28T04:38:34;100877.38;;;10.61;100.00
65760;BME280;52496;51.082;5.066;2023-04-28T04:41:05;100870.00;;;10.63;100.00
65760;BME280;52496;51.082;5.066;2023-04-28T04:43:36;100876.00;;;10.65;100.00
65760;BME280;52496;51.082;5.066;2023-04-28T04:46:06;100870.47;;;10.66;100.00
65760;BME280;52496;51.082;5.066;2023-04-28T04:48:37;100867.59;;;10.68;100.00
65760;BME280;52496;51.082;5.066;2023-04-28T04:51:07;100865.56;;;10.70;100.00
65760;BME280;52496;51.082;5.066;2023-04-28T04:53:38;100868.91;;;10.72;100.00
65760;BME280;52496;51.082;5.066;2023-04-28T04:56:08;100873.50;;;10.78;100.00
65760;BME280;52496;51.082;5.066;2023-04-28T04:58:42;100873.50;;;10.78;100.00
65760;BME280;52496;51.082;5.066;2023-04-28T05:01:13;100871.94;;;10.84;100.00
65760;BME280;52496;51.082;5.066;2023-04-28T05:03:44;100875.09;;;10.87;100.00
65760;BME280;52496;51.082;5.066;2023-04-28T05:06:14;100893.06;;;10.93;100.00
65760;BME280;52496;51.082;5.066;2023-04-28T05:08:45;100886.31;;;10.97;100.00
65760;BME280;52496;51.082;5.066;2023-04-28T05:11:17;100877.91;;;11.00;100.00
65760;BME280;52496;51.082;5.066;2023-04-28T05:13:48;100876.72;;;11.03;100.00
65760;BME280;52496;51.082;5.066;2023-04-28T05:16:19;100885.84;;;11.09;100.00
65760;BME280;52496;51.082;5.066;2023-04-28T05:18:49;100884.28;;;11.14;100.00
65760;BME280;52496;51.082;5.066;2023-04-28T05:21:20;100879.19;;;11.19;100.00
65760;BME280;52496;51.082;5.066;2023-04-28T05:23:51;100878.63;;;11.24;100.00
65760;BME280;52496;51.082;5.066;2023-04-28T05:26:23;100885.25;;;11.28;100.00
65760;BME280;52496;51.082;5.066;2023-04-28T05:28:53;100868.81;;;11.31;100.00
65760;BME280;52496;51.082;5.066;2023-04-28T05:31:24;100874.44;;;11.36;100.00
65760;BME280;52496;51.082;5.066;2023-04-28T05:33:55;100874.06;;;11.39;100.00
65760;BME280;52496;51.082;5.066;2023-04-28T05:36:25;100870.81;;;11.44;100.00
65760;BME280;52496;51.082;5.066;2023-04-28T05:38:56;100882.63;;;11.49;100.00
65760;BME280;52496;51.082;5.066;2023-04-28T05:41:27;100879.38;;;11.54;100.00
65760;BME280;52496;51.082;5.066;2023-04-28T05:44:01;100884.38;;;11.57;100.00
65760;BME280;52496;51.082;5.066;2023-04-28T05:46:41;100869.13;;;11.58;100.00
65760;BME280;52496;51.082;5.066;2023-04-28T05:49:12;100879.00;;;11.57;100.00
65760;BME280;52496;51.082;5.066;2023-04-28T05:51:42;100875.50;;;11.57;100.00
65760;BME280;52496;51.082;5.066;2023-04-28T05:54:14;100872.81;;;11.57;100.00
65760;BME280;52496;51.082;5.066;2023-04-28T05:56:44;100865.41;;;11.59;100.00
65760;BME280;52496;51.082;5.066;2023-04-28T05:59:15;100877.41;;;11.63;100.00
65760;BME280;52496;51.082;5.066;2023-04-28T06:01:45;100872.31;;;11.68;100.00
65760;BME280;52496;51.082;5.066;2023-04-28T06:04:16;100874.59;;;11.71;100.00
65760;BME280;52496;51.082;5.066;2023-04-28T06:06:46;100884.53;;;11.77;100.00
65760;BME280;52496;51.082;5.066;2023-04-28T06:09:17;100881.31;;;11.82;100.00
65760;BME280;52496;51.082;5.066;2023-04-28T06:11:47;100885.13;;;11.87;100.00
65760;BME280;52496;51.082;5.066;2023-04-28T06:14:18;100880.84;;;11.93;100.00
65760;BME280;52496;51.082;5.066;2023-04-28T06:16:49;100873.25;;;11.97;100.00
65760;BME280;52496;51.082;5.066;2023-04-28T06:19:20;100878.81;;;12.02;100.00
65760;BME280;52496;51.082;5.066;2023-04-28T06:21:51;100875.75;;;12.05;100.00
65760;BME280;52496;51.082;5.066;2023-04-28T06:24:22;100872.78;;;12.14;100.00
65760;BME280;52496;51.082;5.066;2023-04-28T06:26:54;100875.72;;;12.26;100.00
65760;BME280;52496;51.082;5.066;2023-04-28T06:29:25;100876.38;;;12.28;100.00
65760;BME280;52496;51.082;5.066;2023-04-28T06:31:59;100873.31;;;12.31;100.00
65760;BME280;52496;51.082;5.066;2023-04-28T06:34:29;100877.88;;;12.37;100.00
65760;BME280;52496;51.082;5.066;2023-04-28T06:37:00;100882.06;;;12.47;100.00
65760;BME280;52496;51.082;5.066;2023-04-28T06:39:31;100877.78;;;12.52;100.00
65760;BME280;52496;51.082;5.066;2023-04-28T06:42:02;100876.56;;;12.55;100.00
65760;BME280;52496;51.082;5.066;2023-04-28T06:44:32;100879.03;;;12.56;100.00
65760;BME280;52496;51.082;5.066;2023-04-28T06:47:03;100881.53;;;12.58;100.00
65760;BME280;52496;51.082;5.066;2023-04-28T06:49:34;100881.16;;;12.61;100.00
65760;BME280;52496;51.082;5.066;2023-04-28T06:52:04;100886.13;;;12.64;100.00
65760;BME280;52496;51.082;5.066;2023-04-28T06:54:37;100884.06;;;12.66;100.00
65760;BME280;52496;51.082;5.066;2023-04-28T06:57:07;100883.69;;;12.69;100.00
65760;BME280;52496;51.082;5.066;2023-04-28T06:59:38;100882.66;;;12.70;100.00
65760;BME280;52496;51.082;5.066;2023-04-28T07:02:09;100890.31;;;12.73;100.00
65760;BME280;52496;51.082;5.066;2023-04-28T07:04:39;100882.50;;;12.78;100.00
65760;BME280;52496;51.082;5.066;2023-04-28T07:07:10;100876.72;;;12.81;100.00
65760;BME280;52496;51.082;5.066;2023-04-28T07:09:41;100892.03;;;12.88;100.00
65760;BME280;52496;51.082;5.066;2023-04-28T07:12:11;100884.03;;;12.94;100.00
65760;BME280;52496;51.082;5.066;2023-04-28T07:14:42;100886.16;;;13.12;100.00
65760;BME280;52496;51.082;5.066;2023-04-28T07:17:12;100885.44;;;13.25;100.00
65760;BME280;52496;51.082;5.066;2023-04-28T07:19:43;100892.47;;;13.32;100.00
65760;BME280;52496;51.082;5.066;2023-04-28T07:22:14;100887.72;;;13.35;100.00
65760;BME280;52496;51.082;5.066;2023-04-28T07:24:44;100890.63;;;13.33;100.00
65760;BME280;52496;51.082;5.066;2023-04-28T07:27:16;100877.59;;;13.30;100.00
65760;BME280;52496;51.082;5.066;2023-04-28T07:29:51;100888.34;;;13.30;100.00
65760;BME280;52496;51.082;5.066;2023-04-28T07:32:21;100886.47;;;13.30;100.00
65760;BME280;52496;51.082;5.066;2023-04-28T07:34:53;100882.78;;;13.38;100.00
65760;BME280;52496;51.082;5.066;2023-04-28T07:37:23;100879.09;;;13.52;100.00
65760;BME280;52496;51.082;5.066;2023-04-28T07:39:55;100889.22;;;13.57;100.00
65760;BME280;52496;51.082;5.066;2023-04-28T07:42:26;100884.91;;;13.56;100.00
65760;BME280;52496;51.082;5.066;2023-04-28T07:44:56;100883.84;;;13.57;100.00
65760;BME280;52496;51.082;5.066;2023-04-28T07:47:28;100887.19;;;13.59;100.00
65760;BME280;52496;51.082;5.066;2023-04-28T07:49:58;100883.69;;;13.72;100.00
65760;BME280;52496;51.082;5.066;2023-04-28T07:52:33;100884.13;;;13.89;100.00
65760;BME280;52496;51.082;5.066;2023-04-28T07:55:03;100880.22;;;14.05;100.00
65760;BME280;52496;51.082;5.066;2023-04-28T07:57:34;100887.44;;;14.17;100.00
65760;BME280;52496;51.082;5.066;2023-04-28T08:00:05;100893.25;;;14.28;100.00
65760;BME280;52496;51.082;5.066;2023-04-28T08:02:36;100889.09;;;14.38;100.00
65760;BME280;52496;51.082;5.066;2023-04-28T08:05:07;100898.63;;;14.41;100.00
65760;BME280;52496;51.082;5.066;2023-04-28T08:07:38;100900.69;;;14.39;100.00
65760;BME280;52496;51.082;5.066;2023-04-28T08:10:09;100892.00;;;14.43;100.00
65760;BME280;52496;51.082;5.066;2023-04-28T08:12:40;100895.72;;;14.49;100.00
65760;BME280;52496;51.082;5.066;2023-04-28T08:15:11;100899.03;;;14.51;100.00
65760;BME280;52496;51.082;5.066;2023-04-28T08:17:42;100900.72;;;14.59;100.00
65760;BME280;52496;51.082;5.066;2023-04-28T08:20:12;100900.69;;;14.65;100.00
65760;BME280;52496;51.082;5.066;2023-04-28T08:22:49;100896.97;;;14.73;100.00
65760;BME280;52496;51.082;5.066;2023-04-28T08:25:19;100906.03;;;14.85;100.00
65760;BME280;52496;51.082;5.066;2023-04-28T08:27:51;100896.66;;;15.01;100.00
65760;BME280;52496;51.082;5.066;2023-04-28T08:30:21;100891.63;;;15.18;100.00
65760;BME280;52496;51.082;5.066;2023-04-28T08:32:52;100888.19;;;15.49;100.00
65760;BME280;52496;51.082;5.066;2023-04-28T08:35:23;100881.81;;;15.75;100.00
65760;BME280;52496;51.082;5.066;2023-04-28T08:37:53;100888.97;;;15.95;100.00
65760;BME280;52496;51.082;5.066;2023-04-28T08:40:24;100886.53;;;16.12;100.00
65760;BME280;52496;51.082;5.066;2023-04-28T08:42:56;100892.88;;;16.24;100.00
65760;BME280;52496;51.082;5.066;2023-04-28T08:45:29;100899.09;;;16.24;100.00
65760;BME280;52496;51.082;5.066;2023-04-28T08:48:02;100892.88;;;16.24;100.00
65760;BME280;52496;51.082;5.066;2023-04-28T08:50:35;100897.88;;;16.20;100.00
65760;BME280;52496;51.082;5.066;2023-04-28T08:53:06;100900.41;;;16.15;100.00
65760;BME280;52496;51.082;5.066;2023-04-28T08:55:37;100900.47;;;16.09;100.00
65760;BME280;52496;51.082;5.066;2023-04-28T08:58:08;100900.47;;;16.09;100.00
65760;BME280;52496;51.082;5.066;2023-04-28T09:00:38;100905.25;;;16.06;100.00
65760;BME280;52496;51.082;5.066;2023-04-28T09:03:09;100903.41;;;16.00;100.00
65760;BME280;52496;51.082;5.066;2023-04-28T09:05:40;100914.66;;;15.97;100.00
65760;BME280;52496;51.082;5.066;2023-04-28T09:08:10;100905.53;;;15.98;100.00
65760;BME280;52496;51.082;5.066;2023-04-28T09:10:41;100907.13;;;16.06;100.00
65760;BME280;52496;51.082;5.066;2023-04-28T09:13:24;100904.97;;;16.15;100.00
65760;BME280;52496;51.082;5.066;2023-04-28T09:15:58;100906.59;;;16.22;100.00
65760;BME280;52496;51.082;5.066;2023-04-28T09:18:30;100901.97;;;16.29;100.00
65760;BME280;52496;51.082;5.066;2023-04-28T09:21:07;100906.28;;;16.37;100.00
65760;BME280;52496;51.082;5.066;2023-04-28T09:23:47;100907.34;;;16.55;100.00
65760;BME280;52496;51.082;5.066;2023-04-28T09:26:18;100906.94;;;16.76;100.00
65760;BME280;52496;51.082;5.066;2023-04-28T09:28:49;100900.06;;;16.99;100.00
65760;BME280;52496;51.082;5.066;2023-04-28T09:31:24;100899.44;;;17.15;100.00
65760;BME280;52496;51.082;5.066;2023-04-28T09:33:58;100894.66;;;17.17;100.00
65760;BME280;52496;51.082;5.066;2023-04-28T09:36:29;100903.50;;;17.24;100.00
65760;BME280;52496;51.082;5.066;2023-04-28T09:39:00;100900.75;;;17.42;100.00
65760;BME280;52496;51.082;5.066;2023-04-28T09:41:40;100901.31;;;17.63;100.00
65760;BME280;52496;51.082;5.066;2023-04-28T09:44:15;100904.81;;;17.82;100.00
65760;BME280;52496;51.082;5.066;2023-04-28T09:46:47;100904.72;;;17.88;100.00
65760;BME280;52496;51.082;5.066;2023-04-28T09:49:18;100895.22;;;17.98;100.00
65760;BME280;52496;51.082;5.066;2023-04-28T09:51:48;100901.09;;;17.95;100.00
65760;BME280;52496;51.082;5.066;2023-04-28T09:54:20;100904.97;;;17.87;100.00
65760;BME280;52496;51.082;5.066;2023-04-28T09:56:52;100905.28;;;17.79;100.00
65760;BME280;52496;51.082;5.066;2023-04-28T09:59:23;100908.41;;;17.76;100.00
65760;BME280;52496;51.082;5.066;2023-04-28T10:01:56;100903.19;;;17.81;100.00
65760;BME280;52496;51.082;5.066;2023-04-28T10:04:26;100911.06;;;17.82;100.00
65760;BME280;52496;51.082;5.066;2023-04-28T10:07:02;100908.25;;;17.89;100.00
65760;BME280;52496;51.082;5.066;2023-04-28T10:09:33;100902.81;;;17.89;100.00
65760;BME280;52496;51.082;5.066;2023-04-28T10:12:05;100907.56;;;17.94;100.00
65760;BME280;52496;51.082;5.066;2023-04-28T10:14:36;100906.16;;;18.03;100.00
65760;BME280;52496;51.082;5.066;2023-04-28T10:17:07;100900.53;;;18.16;100.00
65760;BME280;52496;51.082;5.066;2023-04-28T10:19:39;100903.63;;;18.31;100.00
65760;BME280;52496;51.082;5.066;2023-04-28T10:27:42;100892.44;;;18.28;100.00
65760;BME280;52496;51.082;5.066;2023-04-28T10:30:16;100894.22;;;18.46;100.00
65760;BME280;52496;51.082;5.066;2023-04-28T10:35:45;100887.38;;;18.90;100.00
65760;BME280;52496;51.082;5.066;2023-04-28T10:38:17;100885.94;;;19.11;100.00
65760;BME280;52496;51.082;5.066;2023-04-28T10:40:51;100892.63;;;19.20;100.00
65760;BME280;52496;51.082;5.066;2023-04-28T10:43:35;100890.88;;;19.14;100.00
65760;BME280;52496;51.082;5.066;2023-04-28T10:46:08;100881.69;;;19.03;100.00
65760;BME280;52496;51.082;5.066;2023-04-28T10:56:23;100880.50;;;19.11;99.97
65760;BME280;52496;51.082;5.066;2023-04-28T10:58:58;100881.84;;;19.25;100.00
65760;BME280;52496;51.082;5.066;2023-04-28T11:01:30;100884.03;;;19.40;98.86
65760;BME280;52496;51.082;5.066;2023-04-28T11:04:09;100875.75;;;19.47;99.05
65760;BME280;52496;51.082;5.066;2023-04-28T11:06:42;100878.41;;;19.42;94.35
65760;BME280;52496;51.082;5.066;2023-04-28T11:14:33;100878.09;;;19.27;97.28
65760;BME280;52496;51.082;5.066;2023-04-28T11:17:09;100873.09;;;19.07;95.80
65760;BME280;52496;51.082;5.066;2023-04-28T11:19:43;100887.88;;;18.87;97.14
65760;BME280;52496;51.082;5.066;2023-04-28T11:22:15;100889.50;;;18.65;97.73
65760;BME280;52496;51.082;5.066;2023-04-28T11:24:58;100889.28;;;18.43;97.36
65760;BME280;52496;51.082;5.066;2023-04-28T11:27:30;100882.06;;;18.25;99.09
65760;BME280;52496;51.082;5.066;2023-04-28T11:30:02;100888.44;;;18.19;99.63
65760;BME280;52496;51.082;5.066;2023-04-28T11:32:34;100900.66;;;18.21;100.00
65760;BME280;52496;51.082;5.066;2023-04-28T11:35:05;100893.63;;;18.32;100.00
65760;BME280;52496;51.082;5.066;2023-04-28T11:37:38;100895.50;;;18.43;99.70
65760;BME280;52496;51.082;5.066;2023-04-28T11:40:12;100900.56;;;18.63;99.19
65760;BME280;52496;51.082;5.066;2023-04-28T11:42:49;100900.81;;;18.73;96.97
65760;BME280;52496;51.082;5.066;2023-04-28T11:45:20;100894.66;;;18.90;96.75
65760;BME280;52496;51.082;5.066;2023-04-28T11:47:50;100900.78;;;19.09;94.29
65760;BME280;52496;51.082;5.066;2023-04-28T11:50:36;100904.44;;;19.14;95.07
65760;BME280;52496;51.082;5.066;2023-04-28T11:53:07;100899.56;;;19.16;93.12
65760;BME280;52496;51.082;5.066;2023-04-28T11:55:38;100900.28;;;19.23;93.75
65760;BME280;52496;51.082;5.066;2023-04-28T11:58:19;100901.53;;;19.33;93.19
65760;BME280;52496;51.082;5.066;2023-04-28T12:01:11;100902.91;;;19.35;92.45
65760;BME280;52496;51.082;5.066;2023-04-28T12:03:46;100906.06;;;19.44;94.03
65760;BME280;52496;51.082;5.066;2023-04-28T12:06:17;100910.84;;;19.65;94.26
65760;BME280;52496;51.082;5.066;2023-04-28T12:08:48;100906.19;;;19.78;91.12
65760;BME280;52496;51.082;5.066;2023-04-28T12:11:19;100905.56;;;20.04;89.19
65760;BME280;52496;51.082;5.066;2023-04-28T12:14:04;100909.69;;;20.07;88.75
65760;BME280;52496;51.082;5.066;2023-04-28T12:16:43;100911.81;;;19.88;88.32
65760;BME280;52496;51.082;5.066;2023-04-28T12:19:14;100922.31;;;19.56;90.51
65760;BME280;52496;51.082;5.066;2023-04-28T12:22:04;100920.63;;;19.26;93.65
65760;BME280;52496;51.082;5.066;2023-04-28T12:24:35;100925.50;;;19.12;94.85
65760;BME280;52496;51.082;5.066;2023-04-28T12:27:19;100945.09;;;19.14;97.76
65760;BME280;52496;51.082;5.066;2023-04-28T12:29:54;100942.63;;;19.01;93.42
65760;BME280;52496;51.082;5.066;2023-04-28T12:32:41;100947.22;;;18.89;94.39
65760;BME280;52496;51.082;5.066;2023-04-28T12:35:14;100955.22;;;18.72;94.21
65760;BME280;52496;51.082;5.066;2023-04-28T12:37:45;100955.81;;;18.50;95.05
65760;BME280;52496;51.082;5.066;2023-04-28T12:40:15;100963.78;;;18.33;97.00
65760;BME280;52496;51.082;5.066;2023-04-28T12:42:46;100951.38;;;18.14;96.17
65760;BME280;52496;51.082;5.066;2023-04-28T12:45:17;100960.41;;;17.96;98.21
65760;BME280;52496;51.082;5.066;2023-04-28T12:47:47;100960.94;;;17.86;99.34
65760;BME280;52496;51.082;5.066;2023-04-28T12:50:18;100971.91;;;17.73;99.50
65760;BME280;52496;51.082;5.066;2023-04-28T12:52:48;100966.22;;;17.63;99.89
65760;BME280;52496;51.082;5.066;2023-04-28T12:55:19;100975.53;;;17.49;100.00
65760;BME280;52496;51.082;5.066;2023-04-28T12:57:49;100979.00;;;17.37;100.00
65760;BME280;52496;51.082;5.066;2023-04-28T13:00:21;100983.22;;;17.33;100.00
65760;BME280;52496;51.082;5.066;2023-04-28T13:02:54;100990.72;;;17.31;100.00
65760;BME280;52496;51.082;5.066;2023-04-28T13:05:24;100992.22;;;17.27;100.00
65760;BME280;52496;51.082;5.066;2023-04-28T13:07:55;100987.09;;;17.19;100.00
65760;BME280;52496;51.082;5.066;2023-04-28T13:10:26;101001.94;;;17.16;100.00
65760;BME280;52496;51.082;5.066;2023-04-28T13:12:56;101001.31;;;17.14;100.00
65760;BME280;52496;51.082;5.066;2023-04-28T13:15:27;101015.09;;;17.06;100.00
65760;BME280;52496;51.082;5.066;2023-04-28T13:17:57;101015.44;;;16.91;100.00
65760;BME280;52496;51.082;5.066;2023-04-28T13:20:29;101022.63;;;16.79;100.00
65760;BME280;52496;51.082;5.066;2023-04-28T13:22:59;101022.03;;;16.77;100.00
65760;BME280;52496;51.082;5.066;2023-04-28T13:25:30;101021.75;;;16.85;100.00
65760;BME280;52496;51.082;5.066;2023-04-28T13:28:00;101026.88;;;16.93;100.00
65760;BME280;52496;51.082;5.066;2023-04-28T13:30:31;101030.78;;;16.97;100.00